Time;durP1;ratioP1;P1;durP2;ratioP2;P2;SDS_P1;SDS_P2;PMS_P1;PMS_P2;Temp;Humidity;BMP_temperature;BMP_pressure;BME280_temperature;BME280_humidity;BME280_pressure;Samples;Min_cycle;Max_cycle;Signal;HPM_P1;HPM_P2
2023/01/06 00:03:54;;;;;;;15.75;6.32;;;;;;;;;;10401040;28;20100;-79
2023/01/06 00:08:57;;;;;;;10.88;6.75;;;;;;;;;;10368808;28;20050;-77
2023/01/06 00:13:58;;;;;;;15.33;5.00;;;;;;;;;;10368877;28;20057;-76
2023/01/06 00:18:59;;;;;;;18.35;6.75;;;;;;;;;;10377061;28;20379;-78
2023/01/06 00:24:01;;;;;;;16.17;5.80;;;;;;;;;;10386212;28;20473;-79
2023/01/06 00:29:02;;;;;;;16.88;6.15;;;;;;;;;;10356846;28;20489;-78
2023/01/06 00:34:06;;;;;;;16.23;5.72;;;;;;;;;;10373898;28;20130;-78
2023/01/06 00:39:06;;;;;;;12.37;5.60;;;;;;;;;;10375149;28;20141;-76
2023/01/06 00:44:07;;;;;;;16.80;5.45;;;;;;;;;;10392384;28;20436;-77
2023/01/06 00:49:08;;;;;;;17.17;5.30;;;;;;;;;;10378505;28;20045;-77
2023/01/06 00:54:10;;;;;;;13.88;5.40;;;;;;;;;;10369462;28;20037;-76
2023/01/06 00:59:11;;;;;;;12.75;5.53;;;;;;;;;;10378322;28;20096;-76
2023/01/06 01:04:12;;;;;;;16.10;6.22;;;;;;;;;;10368285;28;20060;-77
2023/01/06 01:09:17;;;;;;;16.08;6.85;;;;;;;;;;10356024;28;20066;-77
2023/01/06 01:14:18;;;;;;;18.58;5.93;;;;;;;;;;10388589;28;20038;-77
2023/01/06 01:19:19;;;;;;;17.58;7.15;;;;;;;;;;10382303;28;20454;-77
2023/01/06 01:24:21;;;;;;;16.20;6.97;;;;;;;;;;10383569;28;20069;-76
2023/01/06 01:29:22;;;;;;;20.15;7.20;;;;;;;;;;10373047;28;20088;-77
2023/01/06 01:34:23;;;;;;;15.10;7.07;;;;;;;;;;10391599;28;20045;-76
2023/01/06 01:39:28;;;;;;;17.15;6.97;;;;;;;;;;10375666;28;20057;-76
2023/01/06 01:44:47;;;;;;;16.77;6.53;;;;;;;;;;10382252;28;20053;-77
2023/01/06 01:49:49;;;;;;;21.15;6.88;;;;;;;;;;10373479;28;20033;-76
2023/01/06 01:54:50;;;;;;;15.80;7.60;;;;;;;;;;10387782;28;20038;-77
2023/01/06 01:59:51;;;;;;;23.67;7.32;;;;;;;;;;10411555;28;20056;-77
2023/01/06 02:04:53;;;;;;;13.50;6.72;;;;;;;;;;10429974;28;20026;-76
2023/01/06 02:09:53;;;;;;;17.40;7.00;;;;;;;;;;11087867;22;20046;-77
2023/01/06 02:14:54;;;;;;;13.65;6.85;;;;;;;;;;10377162;28;20042;-76
2023/01/06 02:19:54;;;;;;;10.85;6.10;;;;;;;;;;10355517;28;20045;-77
2023/01/06 02:25:15;;;;;;;17.33;6.75;;;;;;;;;;10343650;28;20047;-75
2023/01/06 02:30:35;;;;;;;12.23;6.78;;;;;;;;;;10319016;28;20039;-76
2023/01/06 02:35:39;;;;;;;18.55;7.30;;;;;;;;;;10342467;28;20776;-76
2023/01/06 02:41:01;;;;;;;10.57;6.10;;;;;;;;;;10349766;28;20037;-76
2023/01/06 02:46:22;;;;;;;16.42;7.15;;;;;;;;;;10343991;28;20058;-77
2023/01/06 02:51:28;;;;;;;13.77;6.88;;;;;;;;;;10339256;28;20041;-75
2023/01/06 02:56:31;;;;;;;15.98;7.20;;;;;;;;;;10340193;28;20405;-76
2023/01/06 03:01:34;;;;;;;13.40;7.13;;;;;;;;;;10333398;28;20153;-76
2023/01/06 03:06:36;;;;;;;17.50;6.90;;;;;;;;;;10353583;28;20046;-77
2023/01/06 03:11:39;;;;;;;19.13;7.95;;;;;;;;;;10337456;28;20054;-76
2023/01/06 03:16:41;;;;;;;17.65;7.93;;;;;;;;;;10355462;28;20034;-76
2023/01/06 03:21:43;;;;;;;18.95;7.78;;;;;;;;;;10334245;28;20038;-75
2023/01/06 03:26:47;;;;;;;15.68;7.25;;;;;;;;;;10353215;28;20053;-76
2023/01/06 03:31:52;;;;;;;16.23;8.23;;;;;;;;;;10345289;28;20054;-76
2023/01/06 03:36:52;;;;;;;17.05;8.23;;;;;;;;;;10351489;28;20691;-75
2023/01/06 03:47:25;;;;;;;17.27;7.93;;;;;;;;;;10349588;28;20196;-75
2023/01/06 03:52:30;;;;;;;14.88;8.07;;;;;;;;;;10345601;28;20044;-75
2023/01/06 03:57:35;;;;;;;15.18;6.95;;;;;;;;;;10340701;28;20125;-75
2023/01/06 04:02:39;;;;;;;13.10;7.65;;;;;;;;;;10350001;28;20047;-75
2023/01/06 04:07:42;;;;;;;18.07;7.67;;;;;;;;;;10346384;28;20477;-75
2023/01/06 04:12:42;;;;;;;14.32;7.82;;;;;;;;;;10351179;28;20077;-76
2023/01/06 04:17:48;;;;;;;13.30;7.60;;;;;;;;;;10347469;28;20081;-76
2023/01/06 04:22:51;;;;;;;15.40;8.75;;;;;;;;;;10350938;28;20076;-77
2023/01/06 04:27:53;;;;;;;11.17;6.80;;;;;;;;;;10346897;28;20045;-76
2023/01/06 04:32:54;;;;;;;10.38;6.22;;;;;;;;;;10344916;28;20049;-75
2023/01/06 04:37:54;;;;;;;13.10;6.90;;;;;;;;;;10342746;28;20042;-76
2023/01/06 04:43:04;;;;;;;12.60;6.87;;;;;;;;;;10343136;28;20095;-76
2023/01/06 04:48:05;;;;;;;12.30;6.97;;;;;;;;;;10340565;28;20325;-76
2023/01/06 04:53:09;;;;;;;9.85;6.50;;;;;;;;;;10345989;28;20043;-77
2023/01/06 04:58:09;;;;;;;13.02;7.15;;;;;;;;;;10351745;28;20121;-77
2023/01/06 05:03:11;;;;;;;12.52;6.55;;;;;;;;;;10345933;28;20096;-76
2023/01/06 05:08:11;;;;;;;11.27;7.82;;;;;;;;;;10341111;28;20814;-76
2023/01/06 05:13:13;;;;;;;11.43;7.07;;;;;;;;;;10352150;28;20539;-76
2023/01/06 05:18:13;;;;;;;12.57;6.93;;;;;;;;;;10345853;28;20049;-75
2023/01/06 05:23:14;;;;;;;10.70;5.97;;;;;;;;;;10343630;28;20299;-75
2023/01/06 05:28:15;;;;;;;11.48;6.95;;;;;;;;;;10341608;28;20129;-75
2023/01/06 05:33:15;;;;;;;12.48;6.22;;;;;;;;;;10348232;28;20478;-76
2023/01/06 05:38:16;;;;;;;7.90;5.43;;;;;;;;;;10348389;28;20041;-76
2023/01/06 05:43:17;;;;;;;11.87;6.13;;;;;;;;;;10350448;28;20048;-75
2023/01/06 05:48:18;;;;;;;10.95;7.13;;;;;;;;;;10338532;28;20313;-77
2023/01/06 05:53:18;;;;;;;9.75;6.03;;;;;;;;;;10343657;28;20034;-76
2023/01/06 05:58:18;;;;;;;9.37;5.83;;;;;;;;;;10339394;28;20049;-75
2023/01/06 06:03:19;;;;;;;8.47;6.13;;;;;;;;;;10342325;28;21001;-75
2023/01/06 06:08:21;;;;;;;9.80;6.30;;;;;;;;;;10342792;28;20314;-75
2023/01/06 06:13:21;;;;;;;9.55;6.53;;;;;;;;;;10343020;28;20042;-74
2023/01/06 06:18:21;;;;;;;9.55;5.80;;;;;;;;;;10326324;28;20069;-75
2023/01/06 06:23:22;;;;;;;8.57;5.68;;;;;;;;;;10348099;28;20914;-75
2023/01/06 06:28:22;;;;;;;8.03;5.50;;;;;;;;;;10341819;28;20115;-75
2023/01/06 06:33:23;;;;;;;10.20;5.70;;;;;;;;;;10337920;28;20381;-74
2023/01/06 06:38:23;;;;;;;8.95;6.35;;;;;;;;;;10353671;28;20327;-74
2023/01/06 06:43:23;;;;;;;10.60;6.82;;;;;;;;;;10340440;28;20038;-77
2023/01/06 06:48:26;;;;;;;10.18;6.05;;;;;;;;;;10351219;28;20620;-76
2023/01/06 06:53:27;;;;;;;9.88;6.38;;;;;;;;;;10350391;28;20100;-76
2023/01/06 06:58:27;;;;;;;9.77;6.45;;;;;;;;;;10347841;28;20889;-76
2023/01/06 07:03:27;;;;;;;10.07;6.60;;;;;;;;;;10354742;28;20514;-76
2023/01/06 07:08:28;;;;;;;8.93;6.17;;;;;;;;;;10365468;28;20077;-77
2023/01/06 07:13:29;;;;;;;10.75;6.90;;;;;;;;;;10363874;28;20363;-76
2023/01/06 07:18:31;;;;;;;9.98;6.05;;;;;;;;;;10350600;28;20049;-76
2023/01/06 07:23:31;;;;;;;8.23;5.55;;;;;;;;;;10376028;28;20026;-76
2023/01/06 07:28:32;;;;;;;8.20;6.03;;;;;;;;;;10355457;28;20046;-77
2023/01/06 07:33:32;;;;;;;6.65;5.30;;;;;;;;;;10352564;28;20783;-77
2023/01/06 07:38:32;;;;;;;8.20;5.20;;;;;;;;;;10355288;28;20052;-76
2023/01/06 07:43:33;;;;;;;8.50;5.70;;;;;;;;;;10349990;28;20056;-76
2023/01/06 07:48:33;;;;;;;6.65;4.90;;;;;;;;;;10353082;28;20045;-77
2023/01/06 07:53:34;;;;;;;8.05;5.35;;;;;;;;;;10347993;28;20065;-75
2023/01/06 07:58:34;;;;;;;7.03;5.25;;;;;;;;;;10347817;28;20100;-75
2023/01/06 08:03:36;;;;;;;6.88;5.07;;;;;;;;;;10349392;28;20037;-77
2023/01/06 08:08:37;;;;;;;7.03;4.50;;;;;;;;;;10347833;28;20109;-77
2023/01/06 08:13:38;;;;;;;5.53;4.20;;;;;;;;;;10348070;28;20046;-77
2023/01/06 08:18:39;;;;;;;5.78;4.40;;;;;;;;;;10346670;28;20108;-75
2023/01/06 08:23:39;;;;;;;5.88;4.25;;;;;;;;;;10343203;28;20125;-77
2023/01/06 08:28:44;;;;;;;6.80;4.22;;;;;;;;;;10347812;28;20045;-76
2023/01/06 08:33:44;;;;;;;5.57;3.90;;;;;;;;;;10344697;28;20038;-80
2023/01/06 08:38:44;;;;;;;7.32;4.43;;;;;;;;;;10351327;28;20120;-78
2023/01/06 08:43:45;;;;;;;5.90;4.10;;;;;;;;;;10354084;28;20410;-77
2023/01/06 08:48:47;;;;;;;5.55;4.00;;;;;;;;;;10347965;28;20463;-78
2023/01/06 08:53:47;;;;;;;6.38;4.20;;;;;;;;;;10350045;28;20046;-77
2023/01/06 08:58:52;;;;;;;5.80;3.53;;;;;;;;;;10334773;28;20089;-76
2023/01/06 09:03:53;;;;;;;6.47;3.70;;;;;;;;;;10350456;28;20991;-77
2023/01/06 09:08:54;;;;;;;4.38;3.10;;;;;;;;;;10343306;28;20165;-77
2023/01/06 09:13:54;;;;;;;4.10;2.80;;;;;;;;;;10345965;28;20060;-76
2023/01/06 09:18:55;;;;;;;2.20;1.87;;;;;;;;;;10352558;28;20049;-76
2023/01/06 09:23:55;;;;;;;2.95;2.20;;;;;;;;;;10351209;28;20292;-77
2023/01/06 09:28:56;;;;;;;5.60;4.15;;;;;;;;;;10345518;28;20475;-76
2023/01/06 09:33:56;;;;;;;2.60;1.90;;;;;;;;;;10341400;28;20041;-75
2023/01/06 09:38:57;;;;;;;2.45;1.63;;;;;;;;;;10349709;28;20366;-76
2023/01/06 09:44:03;;;;;;;3.92;1.67;;;;;;;;;;10347609;28;20035;-75
2023/01/06 09:49:12;;;;;;;1.83;1.23;;;;;;;;;;10346153;28;20957;-77
2023/01/06 09:54:18;;;;;;;2.42;1.63;;;;;;;;;;10339500;28;20428;-76
2023/01/06 09:59:22;;;;;;;2.47;1.40;;;;;;;;;;10350495;28;20033;-76
2023/01/06 10:04:26;;;;;;;1.50;1.10;;;;;;;;;;10348652;28;20050;-76
2023/01/06 10:09:59;;;;;;;2.17;1.25;;;;;;;;;;10352074;28;20042;-74
2023/01/06 10:15:18;;;;;;;1.35;1.15;;;;;;;;;;10320424;28;20058;-75
2023/01/06 10:20:29;;;;;;;2.25;1.45;;;;;;;;;;10343855;28;20034;-76
2023/01/06 10:25:31;;;;;;;1.65;1.20;;;;;;;;;;10335796;28;20128;-74
2023/01/06 10:30:35;;;;;;;4.90;3.70;;;;;;;;;;10346196;28;20037;-76
2023/01/06 10:35:35;;;;;;;1.92;1.70;;;;;;;;;;10343717;28;20046;-78
2023/01/06 10:40:36;;;;;;;1.88;1.42;;;;;;;;;;10339169;28;20034;-77
2023/01/06 10:45:36;;;;;;;2.65;1.30;;;;;;;;;;10349677;28;20096;-76
2023/01/06 10:50:37;;;;;;;1.65;1.20;;;;;;;;;;10350312;28;20046;-75
2023/01/06 10:55:40;;;;;;;1.63;1.40;;;;;;;;;;10346175;28;20050;-77
2023/01/06 11:00:56;;;;;;;2.35;1.65;;;;;;;;;;10348827;28;20040;-76
2023/01/06 11:06:03;;;;;;;1.13;0.95;;;;;;;;;;10347836;28;20042;-77
2023/01/06 11:11:08;;;;;;;1.15;0.93;;;;;;;;;;10339622;28;20461;-76
2023/01/06 11:16:20;;;;;;;1.75;1.35;;;;;;;;;;10339569;28;20141;-77
2023/01/06 11:21:36;;;;;;;1.00;0.90;;;;;;;;;;10351161;28;20088;-77
2023/01/06 11:26:43;;;;;;;0.90;0.90;;;;;;;;;;10348538;28;20038;-76
2023/01/06 11:31:46;;;;;;;2.45;1.67;;;;;;;;;;10355959;28;20111;-76
2023/01/06 11:36:47;;;;;;;0.90;0.70;;;;;;;;;;10351966;28;20061;-76
2023/01/06 11:41:49;;;;;;;0.80;0.70;;;;;;;;;;10355912;28;20072;-77
2023/01/06 11:46:51;;;;;;;1.05;0.80;;;;;;;;;;10353334;28;20548;-76
2023/01/06 11:51:59;;;;;;;6.60;1.83;;;;;;;;;;10338703;28;20498;-77
2023/01/06 11:57:03;;;;;;;2.08;0.65;;;;;;;;;;10349804;28;20038;-75
2023/01/06 12:02:10;;;;;;;0.80;0.70;;;;;;;;;;10353339;28;20410;-76
2023/01/06 12:07:15;;;;;;;0.60;0.60;;;;;;;;;;10371112;28;20054;-77
2023/01/06 12:12:20;;;;;;;1.33;0.90;;;;;;;;;;10351207;28;20034;-74
2023/01/06 12:17:30;;;;;;;1.45;1.00;;;;;;;;;;10353294;28;20041;-75
2023/01/06 12:22:49;;;;;;;1.60;1.23;;;;;;;;;;10360584;28;20029;-75
2023/01/06 12:27:55;;;;;;;1.88;0.95;;;;;;;;;;10369390;28;20096;-76
2023/01/06 12:32:57;;;;;;;;;;;;;;;;;;10362767;28;20117;-75
2023/01/06 12:43:43;;;;;;;1.48;1.00;;;;;;;;;;10433787;28;20037;-79
2023/01/06 12:48:57;;;;;;;2.13;1.25;;;;;;;;;;10417939;28;20037;-81
2023/01/06 12:54:35;;;;;;;1.42;1.10;;;;;;;;;;10441573;28;20033;-83
2023/01/06 13:00:04;;;;;;;1.90;1.23;;;;;;;;;;10424743;28;20030;-76
2023/01/06 13:05:24;;;;;;;1.92;1.17;;;;;;;;;;10463346;28;20083;-76
2023/01/06 13:10:46;;;;;;;2.53;1.20;;;;;;;;;;10463528;28;20021;-78
2023/01/06 13:15:47;;;;;;;1.77;1.40;;;;;;;;;;10502506;28;20049;-81
2023/01/06 13:20:54;;;;;;;1.80;1.20;;;;;;;;;;10508033;28;20032;-78
2023/01/06 13:26:06;;;;;;;2.75;1.30;;;;;;;;;;10468384;28;20049;-78
2023/01/06 13:31:19;;;;;;;1.25;1.15;;;;;;;;;;10452299;28;20097;-80
2023/01/06 13:36:30;;;;;;;1.73;0.98;;;;;;;;;;10447158;28;20036;-80
2023/01/06 13:41:34;;;;;;;1.23;1.13;;;;;;;;;;10457518;28;20048;-79
2023/01/06 13:46:35;;;;;;;1.30;1.20;;;;;;;;;;10410075;28;20053;-80
2023/01/06 13:51:39;;;;;;;1.88;1.30;;;;;;;;;;10431082;28;20065;-78
2023/01/06 13:56:40;;;;;;;1.10;0.98;;;;;;;;;;10441915;28;20284;-80
2023/01/06 14:01:41;;;;;;;1.38;1.27;;;;;;;;;;10437608;28;20040;-79
2023/01/06 14:06:45;;;;;;;1.98;1.30;;;;;;;;;;10432330;28;20033;-79
2023/01/06 14:12:20;;;;;;;1.55;1.33;;;;;;;;;;10452684;28;20036;-82
2023/01/06 14:17:43;;;;;;;2.08;1.25;;;;;;;;;;10397787;28;20140;-80
2023/01/06 14:22:56;;;;;;;1.55;1.33;;;;;;;;;;10441974;28;20687;-81
2023/01/06 14:28:02;;;;;;;1.75;1.38;;;;;;;;;;10432251;28;20094;-80
2023/01/06 14:33:06;;;;;;;2.75;1.60;;;;;;;;;;10435703;28;20049;-80
2023/01/06 14:38:25;;;;;;;1.88;1.60;;;;;;;;;;10425646;28;20037;-79
2023/01/06 14:43:41;;;;;;;1.80;1.70;;;;;;;;;;10396034;28;20037;-80
2023/01/06 14:48:44;;;;;;;1.83;1.40;;;;;;;;;;10395521;28;20083;-78
2023/01/06 14:53:47;;;;;;;1.17;1.08;;;;;;;;;;10373306;28;20450;-80
2023/01/06 14:58:48;;;;;;;1.40;1.20;;;;;;;;;;10377480;28;20575;-80
2023/01/06 15:03:59;;;;;;;1.98;1.20;;;;;;;;;;10390547;28;20109;-78
2023/01/06 15:09:16;;;;;;;2.35;1.50;;;;;;;;;;10393359;28;20407;-79
2023/01/06 15:14:24;;;;;;;1.30;1.20;;;;;;;;;;10404165;28;20555;-84
2023/01/06 15:19:27;;;;;;;1.60;1.23;;;;;;;;;;10397003;28;20421;-81
2023/01/06 15:24:31;;;;;;;1.85;1.20;;;;;;;;;;10383238;28;20088;-78
2023/01/06 15:29:34;;;;;;;2.83;1.17;;;;;;;;;;10371176;28;20045;-79
2023/01/06 15:34:41;;;;;;;5.75;3.15;;;;;;;;;;10394971;28;20549;-80
2023/01/06 15:39:43;;;;;;;2.55;1.40;;;;;;;;;;10398666;28;20139;-76
2023/01/06 15:45:00;;;;;;;1.38;1.10;;;;;;;;;;10391468;28;20065;-79
2023/01/06 15:50:08;;;;;;;2.33;1.40;;;;;;;;;;10444769;28;20037;-78
2023/01/06 15:55:32;;;;;;;1.58;1.40;;;;;;;;;;10417525;28;20077;-79
2023/01/06 16:00:56;;;;;;;2.15;1.50;;;;;;;;;;10428493;28;20061;-78
2023/01/06 16:06:10;;;;;;;2.47;1.42;;;;;;;;;;10408205;28;20065;-81
2023/01/06 16:11:59;;;;;;;3.03;1.50;;;;;;;;;;10379385;28;20116;-79
2023/01/06 16:16:41;;;;;;;1.95;1.60;;;;;;;;;;10385819;28;20061;-80
2023/01/06 16:21:43;;;;;;;2.53;1.58;;;;;;;;;;10376484;28;20918;-77
2023/01/06 16:26:50;;;;;;;1.73;1.63;;;;;;;;;;10384647;28;20054;-78
2023/01/06 16:31:51;;;;;;;2.58;1.80;;;;;;;;;;10379355;28;20137;-77
2023/01/06 16:36:53;;;;;;;2.75;1.67;;;;;;;;;;10375162;28;20045;-77
2023/01/06 16:41:57;;;;;;;2.57;1.93;;;;;;;;;;10392374;28;20029;-80
2023/01/06 16:46:58;;;;;;;2.92;1.58;;;;;;;;;;10451837;28;20316;-80
2023/01/06 16:51:58;;;;;;;2.03;1.70;;;;;;;;;;10455772;28;20032;-78
2023/01/06 16:56:59;;;;;;;1.67;1.40;;;;;;;;;;10453142;28;20120;-77
2023/01/06 17:02:00;;;;;;;3.05;1.80;;;;;;;;;;10467052;28;20041;-78
2023/01/06 17:07:02;;;;;;;1.50;1.40;;;;;;;;;;10471574;28;20035;-78
2023/01/06 17:12:10;;;;;;;3.67;2.22;;;;;;;;;;10422814;28;20478;-78
2023/01/06 17:17:18;;;;;;;2.90;1.80;;;;;;;;;;10363719;28;20046;-82
2023/01/06 17:22:33;;;;;;;2.58;1.55;;;;;;;;;;10389691;28;20068;-82
2023/01/06 17:27:35;;;;;;;1.60;1.48;;;;;;;;;;10391546;28;20371;-78
2023/01/06 17:32:40;;;;;;;3.58;2.15;;;;;;;;;;10374596;28;20555;-78
2023/01/06 17:37:40;;;;;;;2.92;2.42;;;;;;;;;;10389163;28;20045;-78
2023/01/06 17:42:43;;;;;;;2.05;1.60;;;;;;;;;;10377568;28;20113;-80
2023/01/06 17:48:00;;;;;;;3.75;1.88;;;;;;;;;;10387410;28;20057;-77
2023/01/06 17:58:39;;;;;;;3.13;2.13;;;;;;;;;;10428146;28;20107;-79
2023/01/06 18:03:42;;;;;;;3.22;2.03;;;;;;;;;;10408282;28;20080;-79
2023/01/06 18:08:44;;;;;;;2.90;2.17;;;;;;;;;;10404480;28;20399;-77
2023/01/06 18:13:49;;;;;;;2.97;1.85;;;;;;;;;;10435337;28;20483;-78
2023/01/06 18:18:50;;;;;;;3.90;2.20;;;;;;;;;;10464150;28;20049;-80
2023/01/06 18:23:51;;;;;;;2.22;1.98;;;;;;;;;;10435869;28;20392;-79
2023/01/06 18:29:00;;;;;;;3.00;2.40;;;;;;;;;;10438039;28;20049;-82
2023/01/06 18:34:19;;;;;;;3.25;2.60;;;;;;;;;;10438810;28;20127;-77
2023/01/06 18:39:42;;;;;;;3.97;3.00;;;;;;;;;;10443442;28;20033;-76
2023/01/06 18:44:42;;;;;;;4.57;2.95;;;;;;;;;;10431226;28;20474;-77
2023/01/06 18:49:43;;;;;;;3.00;2.70;;;;;;;;;;10436141;28;20043;-80
2023/01/06 18:54:45;;;;;;;2.90;2.42;;;;;;;;;;10443217;28;20045;-77
2023/01/06 18:59:45;;;;;;;3.55;2.30;;;;;;;;;;10430216;28;20121;-79
2023/01/06 19:04:46;;;;;;;3.22;2.67;;;;;;;;;;10389732;28;20182;-77
2023/01/06 19:09:48;;;;;;;3.63;2.63;;;;;;;;;;10401130;28;20034;-82
2023/01/06 19:14:52;;;;;;;4.03;2.28;;;;;;;;;;10408940;28;20085;-78
2023/01/06 19:19:55;;;;;;;5.70;4.23;;;;;;;;;;10403627;28;20160;-77
2023/01/06 19:25:00;;;;;;;2.25;2.05;;;;;;;;;;10383131;28;20095;-76
2023/01/06 19:30:21;;;;;;;2.67;2.15;;;;;;;;;;10393297;28;20493;-79
2023/01/06 19:35:28;;;;;;;2.75;2.30;;;;;;;;;;10398978;28;20575;-79
2023/01/06 19:40:40;;;;;;;3.25;2.50;;;;;;;;;;10380692;28;20050;-79
2023/01/06 19:45:41;;;;;;;3.40;2.97;;;;;;;;;;10394138;28;20049;-79
2023/01/06 19:50:41;;;;;;;3.50;2.75;;;;;;;;;;10398996;28;20033;-78
2023/01/06 19:55:45;;;;;;;5.50;3.17;;;;;;;;;;10403145;28;20827;-80
2023/01/06 20:00:48;;;;;;;3.85;2.92;;;;;;;;;;10432399;28;20049;-83
2023/01/06 20:05:49;;;;;;;2.45;2.25;;;;;;;;;;10449370;28;20056;-85
2023/01/06 20:10:51;;;;;;;2.40;2.20;;;;;;;;;;10431953;28;20401;-77
2023/01/06 20:15:53;;;;;;;2.70;2.50;;;;;;;;;;10414627;28;20037;-76
2023/01/06 20:20:53;;;;;;;3.70;2.55;;;;;;;;;;10385830;28;20045;-78
2023/01/06 20:25:55;;;;;;;2.70;2.00;;;;;;;;;;10433228;28;20040;-77
2023/01/06 20:30:55;;;;;;;6.90;4.90;;;;;;;;;;10438780;28;20030;-79
2023/01/06 20:42:07;;;;;;;2.72;2.42;;;;;;;;;;10465029;28;20108;-78
2023/01/06 20:47:07;;;;;;;3.25;2.35;;;;;;;;;;10467343;28;20033;-81
2023/01/06 20:52:08;;;;;;;3.63;2.87;;;;;;;;;;10467049;28;20021;-79
2023/01/06 20:57:08;;;;;;;4.57;2.97;;;;;;;;;;10429594;28;20736;-77
2023/01/06 21:02:09;;;;;;;3.20;2.90;;;;;;;;;;10386575;28;20166;-78
2023/01/06 21:07:09;;;;;;;3.77;2.97;;;;;;;;;;10385812;28;20679;-79
2023/01/06 21:12:11;;;;;;;3.92;2.40;;;;;;;;;;10389423;28;20736;-78
2023/01/06 21:17:11;;;;;;;3.03;2.25;;;;;;;;;;10379741;28;20041;-79
2023/01/06 21:22:12;;;;;;;2.47;2.20;;;;;;;;;;10375822;28;20076;-77
2023/01/06 21:27:12;;;;;;;2.90;2.30;;;;;;;;;;10384554;28;20779;-80
2023/01/06 21:32:14;;;;;;;2.40;2.20;;;;;;;;;;10386455;28;20104;-78
2023/01/06 21:37:14;;;;;;;2.88;2.60;;;;;;;;;;10394567;28;20042;-77
2023/01/06 21:47:35;;;;;;;2.75;2.15;;;;;;;;;;10366783;28;20045;-77
2023/01/06 21:52:40;;;;;;;3.65;2.35;;;;;;;;;;10396599;28;20140;-78
2023/01/06 21:57:43;;;;;;;2.20;2.00;;;;;;;;;;10388214;28;20046;-78
2023/01/06 22:02:44;;;;;;;3.13;2.65;;;;;;;;;;10386951;28;20490;-78
2023/01/06 22:07:46;;;;;;;2.92;2.63;;;;;;;;;;10377035;28;20057;-77
2023/01/06 22:12:51;;;;;;;4.03;2.63;;;;;;;;;;10401318;28;20111;-77
2023/01/06 22:17:56;;;;;;;3.60;2.70;;;;;;;;;;10396032;28;20036;-76
2023/01/06 22:23:02;;;;;;;4.13;3.25;;;;;;;;;;10356827;28;20084;-75
2023/01/06 22:28:05;;;;;;;3.88;3.40;;;;;;;;;;10386983;28;20116;-78
2023/01/06 22:33:06;;;;;;;5.47;3.80;;;;;;;;;;10385062;28;20064;-78
2023/01/06 22:38:10;;;;;;;5.93;3.80;;;;;;;;;;10386491;28;20046;-76
2023/01/06 22:43:12;;;;;;;5.57;3.30;;;;;;;;;;10381257;28;20026;-80
2023/01/06 22:48:16;;;;;;;4.32;3.38;;;;;;;;;;10438262;28;20040;-77
2023/01/06 22:53:18;;;;;;;3.53;2.85;;;;;;;;;;10422677;28;20040;-79
2023/01/06 22:58:20;;;;;;;3.08;2.63;;;;;;;;;;10438266;28;20038;-79
2023/01/06 23:03:21;;;;;;;3.27;2.97;;;;;;;;;;10399625;28;20041;-77
2023/01/06 23:08:22;;;;;;;3.45;3.03;;;;;;;;;;10373793;28;20049;-77
2023/01/06 23:13:23;;;;;;;3.20;2.90;;;;;;;;;;10395349;28;20047;-78
2023/01/06 23:18:26;;;;;;;3.35;2.80;;;;;;;;;;10394822;28;20053;-77
2023/01/06 23:23:29;;;;;;;4.68;3.75;;;;;;;;;;10394786;28;20489;-78
2023/01/06 23:28:32;;;;;;;4.88;3.25;;;;;;;;;;10380713;28;20505;-77
2023/01/06 23:33:36;;;;;;;3.47;3.17;;;;;;;;;;10396482;28;20037;-76
2023/01/06 23:38:38;;;;;;;4.80;3.20;;;;;;;;;;10397252;28;20053;-78
2023/01/06 23:43:41;;;;;;;3.55;3.25;;;;;;;;;;10376714;28;20068;-77
2023/01/06 23:48:43;;;;;;;4.00;3.40;;;;;;;;;;10376180;28;20129;-77
2023/01/06 23:53:45;;;;;;;4.72;3.58;;;;;;;;;;10403630;28;20037;-79
2023/01/06 23:58:47;;;;;;;4.70;3.33;;;;;;;;;;10389906;28;20079;-78
